sensor_id;sensor_type;location;lat;lon;timestamp;P1;durP1;ratioP1;P2;durP2;ratioP2
76176;SDS011;64938;47.696;8.066;2023-08-24T00:00:21;6.97;;;5.43;;
76176;SDS011;64938;47.696;8.066;2023-08-24T00:02:47;6.33;;;5.70;;
76176;SDS011;64938;47.696;8.066;2023-08-24T00:05:15;5.40;;;4.90;;
76176;SDS011;64938;47.696;8.066;2023-08-24T00:07:44;7.70;;;5.57;;
76176;SDS011;64938;47.696;8.066;2023-08-24T00:10:10;5.03;;;4.63;;
76176;SDS011;64938;47.696;8.066;2023-08-24T00:12:36;5.50;;;5.10;;
76176;SDS011;64938;47.696;8.066;2023-08-24T00:15:01;5.27;;;4.87;;
76176;SDS011;64938;47.696;8.066;2023-08-24T00:17:28;5.00;;;4.67;;
76176;SDS011;64938;47.696;8.066;2023-08-24T00:20:00;5.13;;;4.73;;
76176;SDS011;64938;47.696;8.066;2023-08-24T00:22:29;6.50;;;4.97;;
76176;SDS011;64938;47.696;8.066;2023-08-24T00:24:55;6.13;;;4.53;;
76176;SDS011;64938;47.696;8.066;2023-08-24T00:27:25;5.10;;;4.60;;
76176;SDS011;64938;47.696;8.066;2023-08-24T00:29:50;4.80;;;4.40;;
76176;SDS011;64938;47.696;8.066;2023-08-24T00:32:17;5.10;;;4.70;;
76176;SDS011;64938;47.696;8.066;2023-08-24T00:34:42;4.53;;;4.13;;
76176;SDS011;64938;47.696;8.066;2023-08-24T00:37:08;5.47;;;5.07;;
76176;SDS011;64938;47.696;8.066;2023-08-24T00:39:33;4.90;;;4.50;;
76176;SDS011;64938;47.696;8.066;2023-08-24T00:42:03;5.33;;;4.83;;
76176;SDS011;64938;47.696;8.066;2023-08-24T00:44:28;5.00;;;4.60;;
76176;SDS011;64938;47.696;8.066;2023-08-24T00:46:58;5.00;;;4.60;;
76176;SDS011;64938;47.696;8.066;2023-08-24T00:49:37;4.87;;;4.57;;
76176;SDS011;64938;47.696;8.066;2023-08-24T00:52:09;5.27;;;4.87;;
76176;SDS011;64938;47.696;8.066;2023-08-24T00:54:35;6.37;;;5.20;;
76176;SDS011;64938;47.696;8.066;2023-08-24T00:57:08;5.73;;;5.27;;
76176;SDS011;64938;47.696;8.066;2023-08-24T00:59:36;6.80;;;6.13;;
76176;SDS011;64938;47.696;8.066;2023-08-24T01:02:04;7.13;;;6.47;;
76176;SDS011;64938;47.696;8.066;2023-08-24T01:04:35;6.70;;;6.20;;
76176;SDS011;64938;47.696;8.066;2023-08-24T01:07:04;7.33;;;6.63;;
76176;SDS011;64938;47.696;8.066;2023-08-24T01:09:34;7.40;;;6.80;;
76176;SDS011;64938;47.696;8.066;2023-08-24T01:12:19;8.37;;;7.67;;
76176;SDS011;64938;47.696;8.066;2023-08-24T01:15:05;8.63;;;7.90;;
76176;SDS011;64938;47.696;8.066;2023-08-24T01:17:35;7.60;;;7.00;;
76176;SDS011;64938;47.696;8.066;2023-08-24T01:20:01;8.90;;;8.03;;
76176;SDS011;64938;47.696;8.066;2023-08-24T01:22:53;8.83;;;8.03;;
76176;SDS011;64938;47.696;8.066;2023-08-24T01:25:31;10.20;;;8.53;;
76176;SDS011;64938;47.696;8.066;2023-08-24T01:28:07;8.13;;;7.43;;
76176;SDS011;64938;47.696;8.066;2023-08-24T01:30:34;8.93;;;8.13;;
76176;SDS011;64938;47.696;8.066;2023-08-24T01:33:03;8.60;;;7.80;;
76176;SDS011;64938;47.696;8.066;2023-08-24T01:35:37;9.97;;;8.80;;
76176;SDS011;64938;47.696;8.066;2023-08-24T01:38:03;10.30;;;9.50;;
76176;SDS011;64938;47.696;8.066;2023-08-24T01:43:25;9.07;;;8.37;;
76176;SDS011;64938;47.696;8.066;2023-08-24T01:45:54;8.80;;;8.10;;
76176;SDS011;64938;47.696;8.066;2023-08-24T01:48:21;9.67;;;8.87;;
76176;SDS011;64938;47.696;8.066;2023-08-24T01:50:47;8.83;;;8.17;;
76176;SDS011;64938;47.696;8.066;2023-08-24T01:53:13;9.83;;;9.03;;
76176;SDS011;64938;47.696;8.066;2023-08-24T01:55:41;10.43;;;9.43;;
76176;SDS011;64938;47.696;8.066;2023-08-24T01:58:07;10.10;;;9.30;;
76176;SDS011;64938;47.696;8.066;2023-08-24T02:00:33;10.67;;;9.20;;
76176;SDS011;64938;47.696;8.066;2023-08-24T02:03:01;10.47;;;9.60;;
76176;SDS011;64938;47.696;8.066;2023-08-24T02:05:27;9.57;;;8.77;;
76176;SDS011;64938;47.696;8.066;2023-08-24T02:07:54;10.83;;;9.50;;
76176;SDS011;64938;47.696;8.066;2023-08-24T02:10:25;9.77;;;8.73;;
76176;SDS011;64938;47.696;8.066;2023-08-24T02:12:51;9.60;;;8.90;;
76176;SDS011;64938;47.696;8.066;2023-08-24T02:15:17;9.97;;;9.07;;
76176;SDS011;64938;47.696;8.066;2023-08-24T02:17:45;10.17;;;9.17;;
76176;SDS011;64938;47.696;8.066;2023-08-24T02:20:12;11.20;;;9.90;;
76176;SDS011;64938;47.696;8.066;2023-08-24T02:22:38;10.27;;;9.47;;
76176;SDS011;64938;47.696;8.066;2023-08-24T02:25:05;10.20;;;9.47;;
76176;SDS011;64938;47.696;8.066;2023-08-24T02:27:35;9.80;;;9.00;;
76176;SDS011;64938;47.696;8.066;2023-08-24T02:30:04;10.83;;;9.83;;
76176;SDS011;64938;47.696;8.066;2023-08-24T02:32:30;10.70;;;9.80;;
76176;SDS011;64938;47.696;8.066;2023-08-24T02:34:56;10.87;;;10.00;;
76176;SDS011;64938;47.696;8.066;2023-08-24T02:37:23;11.03;;;10.20;;
76176;SDS011;64938;47.696;8.066;2023-08-24T02:39:49;10.87;;;9.87;;
76176;SDS011;64938;47.696;8.066;2023-08-24T02:42:14;11.17;;;10.17;;
76176;SDS011;64938;47.696;8.066;2023-08-24T02:44:40;11.90;;;10.80;;
76176;SDS011;64938;47.696;8.066;2023-08-24T02:47:05;15.23;;;11.23;;
76176;SDS011;64938;47.696;8.066;2023-08-24T02:49:31;10.63;;;9.67;;
76176;SDS011;64938;47.696;8.066;2023-08-24T02:52:01;11.97;;;10.87;;
76176;SDS011;64938;47.696;8.066;2023-08-24T02:54:30;10.90;;;10.10;;
76176;SDS011;64938;47.696;8.066;2023-08-24T02:56:56;11.53;;;10.43;;
76176;SDS011;64938;47.696;8.066;2023-08-24T02:59:21;11.93;;;11.03;;
76176;SDS011;64938;47.696;8.066;2023-08-24T03:01:47;12.53;;;11.43;;
76176;SDS011;64938;47.696;8.066;2023-08-24T03:04:13;11.93;;;10.90;;
76176;SDS011;64938;47.696;8.066;2023-08-24T03:06:38;11.63;;;10.73;;
76176;SDS011;64938;47.696;8.066;2023-08-24T03:09:04;11.77;;;10.77;;
76176;SDS011;64938;47.696;8.066;2023-08-24T03:11:29;13.03;;;11.93;;
76176;SDS011;64938;47.696;8.066;2023-08-24T03:13:55;10.87;;;10.07;;
76176;SDS011;64938;47.696;8.066;2023-08-24T03:16:20;12.43;;;11.43;;
76176;SDS011;64938;47.696;8.066;2023-08-24T03:18:46;13.70;;;12.50;;
76176;SDS011;64938;47.696;8.066;2023-08-24T03:21:12;13.50;;;12.40;;
76176;SDS011;64938;47.696;8.066;2023-08-24T03:23:38;12.30;;;11.10;;
76176;SDS011;64938;47.696;8.066;2023-08-24T03:26:03;12.37;;;11.40;;
76176;SDS011;64938;47.696;8.066;2023-08-24T03:28:29;12.30;;;11.40;;
76176;SDS011;64938;47.696;8.066;2023-08-24T03:30:56;12.33;;;11.43;;
76176;SDS011;64938;47.696;8.066;2023-08-24T03:33:22;12.50;;;11.50;;
76176;SDS011;64938;47.696;8.066;2023-08-24T03:35:47;13.00;;;11.67;;
76176;SDS011;64938;47.696;8.066;2023-08-24T03:38:14;13.30;;;12.30;;
76176;SDS011;64938;47.696;8.066;2023-08-24T03:40:45;13.10;;;12.00;;
76176;SDS011;64938;47.696;8.066;2023-08-24T03:43:13;13.00;;;12.00;;
76176;SDS011;64938;47.696;8.066;2023-08-24T03:45:38;13.93;;;12.80;;
76176;SDS011;64938;47.696;8.066;2023-08-24T03:48:04;13.63;;;12.07;;
76176;SDS011;64938;47.696;8.066;2023-08-24T03:50:30;15.00;;;13.80;;
76176;SDS011;64938;47.696;8.066;2023-08-24T03:52:56;15.07;;;13.53;;
76176;SDS011;64938;47.696;8.066;2023-08-24T03:55:22;14.57;;;13.33;;
76176;SDS011;64938;47.696;8.066;2023-08-24T03:57:48;15.50;;;14.00;;
76176;SDS011;64938;47.696;8.066;2023-08-24T04:00:13;13.00;;;11.97;;
76176;SDS011;64938;47.696;8.066;2023-08-24T04:02:41;15.03;;;13.60;;
76176;SDS011;64938;47.696;8.066;2023-08-24T04:05:07;14.63;;;13.37;;
76176;SDS011;64938;47.696;8.066;2023-08-24T04:07:32;14.23;;;12.90;;
76176;SDS011;64938;47.696;8.066;2023-08-24T04:10:01;14.53;;;13.10;;
76176;SDS011;64938;47.696;8.066;2023-08-24T04:12:31;12.67;;;11.43;;
76176;SDS011;64938;47.696;8.066;2023-08-24T04:14:57;13.70;;;12.30;;
76176;SDS011;64938;47.696;8.066;2023-08-24T04:17:23;13.30;;;11.33;;
76176;SDS011;64938;47.696;8.066;2023-08-24T04:19:49;11.70;;;10.70;;
76176;SDS011;64938;47.696;8.066;2023-08-24T04:22:17;11.30;;;10.50;;
76176;SDS011;64938;47.696;8.066;2023-08-24T04:24:47;10.70;;;9.77;;
76176;SDS011;64938;47.696;8.066;2023-08-24T04:27:14;11.63;;;10.63;;
76176;SDS011;64938;47.696;8.066;2023-08-24T04:29:39;11.13;;;10.23;;
76176;SDS011;64938;47.696;8.066;2023-08-24T04:32:09;9.43;;;8.53;;
76176;SDS011;64938;47.696;8.066;2023-08-24T04:34:35;10.37;;;9.47;;
76176;SDS011;64938;47.696;8.066;2023-08-24T04:37:00;11.77;;;10.77;;
76176;SDS011;64938;47.696;8.066;2023-08-24T04:39:26;11.47;;;10.53;;
76176;SDS011;64938;47.696;8.066;2023-08-24T04:41:52;10.63;;;9.83;;
76176;SDS011;64938;47.696;8.066;2023-08-24T04:44:20;11.60;;;10.60;;
76176;SDS011;64938;47.696;8.066;2023-08-24T04:46:46;10.70;;;9.80;;
76176;SDS011;64938;47.696;8.066;2023-08-24T04:49:12;9.40;;;8.60;;
76176;SDS011;64938;47.696;8.066;2023-08-24T04:51:38;10.40;;;9.43;;
76176;SDS011;64938;47.696;8.066;2023-08-24T04:54:06;10.60;;;9.77;;
76176;SDS011;64938;47.696;8.066;2023-08-24T04:56:32;9.77;;;8.97;;
76176;SDS011;64938;47.696;8.066;2023-08-24T04:59:00;10.73;;;9.60;;
76176;SDS011;64938;47.696;8.066;2023-08-24T05:01:27;10.17;;;9.27;;
76176;SDS011;64938;47.696;8.066;2023-08-24T05:03:57;11.33;;;10.13;;
76176;SDS011;64938;47.696;8.066;2023-08-24T05:06:29;10.97;;;10.07;;
76176;SDS011;64938;47.696;8.066;2023-08-24T05:08:54;10.33;;;9.20;;
76176;SDS011;64938;47.696;8.066;2023-08-24T05:11:21;10.60;;;9.60;;
76176;SDS011;64938;47.696;8.066;2023-08-24T05:13:49;10.07;;;9.20;;
76176;SDS011;64938;47.696;8.066;2023-08-24T05:16:14;10.33;;;9.00;;
76176;SDS011;64938;47.696;8.066;2023-08-24T05:18:40;10.60;;;9.60;;
76176;SDS011;64938;47.696;8.066;2023-08-24T05:21:12;13.93;;;9.60;;
76176;SDS011;64938;47.696;8.066;2023-08-24T05:23:37;23.43;;;9.90;;
76176;SDS011;64938;47.696;8.066;2023-08-24T05:26:04;9.37;;;8.47;;
76176;SDS011;64938;47.696;8.066;2023-08-24T05:28:30;8.77;;;7.97;;
76176;SDS011;64938;47.696;8.066;2023-08-24T05:30:56;8.97;;;8.07;;
76176;SDS011;64938;47.696;8.066;2023-08-24T05:33:25;7.93;;;7.13;;
76176;SDS011;64938;47.696;8.066;2023-08-24T05:35:51;7.57;;;6.93;;
76176;SDS011;64938;47.696;8.066;2023-08-24T05:38:17;7.83;;;7.20;;
76176;SDS011;64938;47.696;8.066;2023-08-24T05:40:47;7.67;;;6.90;;
76176;SDS011;64938;47.696;8.066;2023-08-24T05:43:15;11.15;;;6.93;;
76176;SDS011;64938;47.696;8.066;2023-08-24T05:45:42;7.32;;;6.72;;
76176;SDS011;64938;47.696;8.066;2023-08-24T05:48:10;7.43;;;6.20;;
76176;SDS011;64938;47.696;8.066;2023-08-24T05:50:44;7.68;;;6.85;;
76176;SDS011;64938;47.696;8.066;2023-08-24T05:53:10;8.13;;;6.57;;
76176;SDS011;64938;47.696;8.066;2023-08-24T05:55:37;9.70;;;6.22;;
76176;SDS011;64938;47.696;8.066;2023-08-24T05:58:03;7.68;;;6.97;;
76176;SDS011;64938;47.696;8.066;2023-08-24T06:00:30;7.85;;;7.03;;
76176;SDS011;64938;47.696;8.066;2023-08-24T06:02:58;7.25;;;6.57;;
76176;SDS011;64938;47.696;8.066;2023-08-24T06:05:25;8.57;;;6.47;;
76176;SDS011;64938;47.696;8.066;2023-08-24T06:07:53;15.90;;;7.68;;
76176;SDS011;64938;47.696;8.066;2023-08-24T06:10:19;7.07;;;6.38;;
76176;SDS011;64938;47.696;8.066;2023-08-24T06:12:48;8.45;;;6.75;;
76176;SDS011;64938;47.696;8.066;2023-08-24T06:15:15;7.82;;;7.13;;
76176;SDS011;64938;47.696;8.066;2023-08-24T06:17:41;7.65;;;6.80;;
76176;SDS011;64938;47.696;8.066;2023-08-24T06:20:07;7.85;;;7.25;;
76176;SDS011;64938;47.696;8.066;2023-08-24T06:22:35;10.55;;;6.90;;
76176;SDS011;64938;47.696;8.066;2023-08-24T06:25:01;10.73;;;7.40;;
76176;SDS011;64938;47.696;8.066;2023-08-24T06:27:26;8.18;;;7.38;;
76176;SDS011;64938;47.696;8.066;2023-08-24T06:29:52;14.57;;;7.30;;
76176;SDS011;64938;47.696;8.066;2023-08-24T06:32:17;9.30;;;7.75;;
76176;SDS011;64938;47.696;8.066;2023-08-24T06:34:47;10.57;;;7.18;;
76176;SDS011;64938;47.696;8.066;2023-08-24T06:37:17;9.20;;;7.32;;
76176;SDS011;64938;47.696;8.066;2023-08-24T06:39:44;7.88;;;7.22;;
76176;SDS011;64938;47.696;8.066;2023-08-24T06:42:11;10.48;;;6.85;;
76176;SDS011;64938;47.696;8.066;2023-08-24T06:44:39;9.82;;;6.75;;
76176;SDS011;64938;47.696;8.066;2023-08-24T06:47:15;7.20;;;6.50;;
76176;SDS011;64938;47.696;8.066;2023-08-24T06:49:41;14.63;;;6.38;;
76176;SDS011;64938;47.696;8.066;2023-08-24T06:52:06;7.07;;;6.45;;
76176;SDS011;64938;47.696;8.066;2023-08-24T06:54:33;7.80;;;7.20;;
76176;SDS011;64938;47.696;8.066;2023-08-24T06:56:59;7.85;;;6.35;;
76176;SDS011;64938;47.696;8.066;2023-08-24T06:59:24;11.10;;;6.38;;
76176;SDS011;64938;47.696;8.066;2023-08-24T07:01:52;11.10;;;6.25;;
76176;SDS011;64938;47.696;8.066;2023-08-24T07:04:18;6.70;;;6.18;;
76176;SDS011;64938;47.696;8.066;2023-08-24T07:06:52;6.65;;;6.15;;
76176;SDS011;64938;47.696;8.066;2023-08-24T07:09:19;6.50;;;5.85;;
76176;SDS011;64938;47.696;8.066;2023-08-24T07:11:50;9.27;;;6.07;;
76176;SDS011;64938;47.696;8.066;2023-08-24T07:14:20;7.85;;;6.18;;
76176;SDS011;64938;47.696;8.066;2023-08-24T07:16:47;7.05;;;6.40;;
76176;SDS011;64938;47.696;8.066;2023-08-24T07:19:13;6.47;;;5.88;;
76176;SDS011;64938;47.696;8.066;2023-08-24T07:21:38;6.20;;;5.60;;
76176;SDS011;64938;47.696;8.066;2023-08-24T07:24:04;7.07;;;6.47;;
76176;SDS011;64938;47.696;8.066;2023-08-24T07:26:29;6.70;;;6.18;;
76176;SDS011;64938;47.696;8.066;2023-08-24T07:28:58;6.80;;;6.20;;
76176;SDS011;64938;47.696;8.066;2023-08-24T07:31:24;6.68;;;5.97;;
76176;SDS011;64938;47.696;8.066;2023-08-24T07:33:50;8.32;;;6.60;;
76176;SDS011;64938;47.696;8.066;2023-08-24T07:36:16;7.00;;;6.38;;
76176;SDS011;64938;47.696;8.066;2023-08-24T07:38:41;8.70;;;6.28;;
76176;SDS011;64938;47.696;8.066;2023-08-24T07:41:07;6.53;;;5.88;;
76176;SDS011;64938;47.696;8.066;2023-08-24T07:43:37;6.45;;;5.70;;
76176;SDS011;64938;47.696;8.066;2023-08-24T07:46:11;6.75;;;6.07;;
76176;SDS011;64938;47.696;8.066;2023-08-24T07:48:39;8.15;;;6.43;;
76176;SDS011;64938;47.696;8.066;2023-08-24T07:51:06;6.80;;;6.28;;
76176;SDS011;64938;47.696;8.066;2023-08-24T07:53:32;8.77;;;5.90;;
76176;SDS011;64938;47.696;8.066;2023-08-24T07:55:58;7.55;;;6.38;;
76176;SDS011;64938;47.696;8.066;2023-08-24T07:58:24;7.13;;;5.80;;
76176;SDS011;64938;47.696;8.066;2023-08-24T08:00:50;6.88;;;6.15;;
76176;SDS011;64938;47.696;8.066;2023-08-24T08:03:19;7.30;;;6.32;;
76176;SDS011;64938;47.696;8.066;2023-08-24T08:05:46;6.78;;;6.28;;
76176;SDS011;64938;47.696;8.066;2023-08-24T08:08:13;7.82;;;6.40;;
76176;SDS011;64938;47.696;8.066;2023-08-24T08:10:39;7.40;;;6.40;;
76176;SDS011;64938;47.696;8.066;2023-08-24T08:13:06;7.68;;;6.38;;
76176;SDS011;64938;47.696;8.066;2023-08-24T08:15:32;6.85;;;6.35;;
76176;SDS011;64938;47.696;8.066;2023-08-24T08:17:57;7.50;;;6.72;;
76176;SDS011;64938;47.696;8.066;2023-08-24T08:20:23;11.60;;;6.22;;
76176;SDS011;64938;47.696;8.066;2023-08-24T08:22:53;9.73;;;6.20;;
76176;SDS011;64938;47.696;8.066;2023-08-24T08:25:18;7.70;;;6.55;;
76176;SDS011;64938;47.696;8.066;2023-08-24T08:27:47;23.02;;;7.93;;
76176;SDS011;64938;47.696;8.066;2023-08-24T08:30:16;11.48;;;6.40;;
76176;SDS011;64938;47.696;8.066;2023-08-24T08:32:41;6.93;;;6.43;;
76176;SDS011;64938;47.696;8.066;2023-08-24T08:35:12;7.03;;;6.32;;
76176;SDS011;64938;47.696;8.066;2023-08-24T08:37:39;7.07;;;6.40;;
76176;SDS011;64938;47.696;8.066;2023-08-24T08:40:04;9.05;;;6.60;;
76176;SDS011;64938;47.696;8.066;2023-08-24T08:42:31;8.07;;;6.53;;
76176;SDS011;64938;47.696;8.066;2023-08-24T08:44:59;6.80;;;6.10;;
76176;SDS011;64938;47.696;8.066;2023-08-24T08:47:29;6.47;;;5.70;;
76176;SDS011;64938;47.696;8.066;2023-08-24T08:49:55;7.20;;;6.45;;
76176;SDS011;64938;47.696;8.066;2023-08-24T08:52:21;7.07;;;6.38;;
76176;SDS011;64938;47.696;8.066;2023-08-24T08:54:47;10.20;;;7.80;;
76176;SDS011;64938;47.696;8.066;2023-08-24T08:57:13;47.40;;;18.98;;
76176;SDS011;64938;47.696;8.066;2023-08-24T08:59:39;10.60;;;7.28;;
76176;SDS011;64938;47.696;8.066;2023-08-24T09:02:06;7.13;;;6.43;;
76176;SDS011;64938;47.696;8.066;2023-08-24T09:04:33;6.50;;;5.85;;
76176;SDS011;64938;47.696;8.066;2023-08-24T09:07:00;7.32;;;6.72;;
76176;SDS011;64938;47.696;8.066;2023-08-24T09:09:32;9.10;;;6.25;;
76176;SDS011;64938;47.696;8.066;2023-08-24T09:12:06;7.20;;;6.10;;
76176;SDS011;64938;47.696;8.066;2023-08-24T09:14:38;9.48;;;6.78;;
76176;SDS011;64938;47.696;8.066;2023-08-24T09:17:05;10.73;;;6.53;;
76176;SDS011;64938;47.696;8.066;2023-08-24T09:19:31;9.90;;;6.47;;
76176;SDS011;64938;47.696;8.066;2023-08-24T09:22:00;11.05;;;7.03;;
76176;SDS011;64938;47.696;8.066;2023-08-24T09:24:34;6.72;;;6.10;;
76176;SDS011;64938;47.696;8.066;2023-08-24T09:27:16;6.78;;;6.28;;
76176;SDS011;64938;47.696;8.066;2023-08-24T09:29:52;6.82;;;6.05;;
76176;SDS011;64938;47.696;8.066;2023-08-24T09:32:22;8.30;;;7.35;;
76176;SDS011;64938;47.696;8.066;2023-08-24T09:35:02;7.93;;;6.63;;
76176;SDS011;64938;47.696;8.066;2023-08-24T09:37:35;7.57;;;6.95;;
76176;SDS011;64938;47.696;8.066;2023-08-24T09:40:04;7.43;;;6.65;;
76176;SDS011;64938;47.696;8.066;2023-08-24T09:42:42;7.63;;;7.00;;
76176;SDS011;64938;47.696;8.066;2023-08-24T09:45:11;7.65;;;6.95;;
76176;SDS011;64938;47.696;8.066;2023-08-24T09:47:49;7.82;;;7.07;;
76176;SDS011;64938;47.696;8.066;2023-08-24T09:50:16;8.27;;;7.05;;
76176;SDS011;64938;47.696;8.066;2023-08-24T09:52:42;10.00;;;6.90;;
76176;SDS011;64938;47.696;8.066;2023-08-24T09:55:07;8.43;;;7.78;;
76176;SDS011;64938;47.696;8.066;2023-08-24T09:57:38;10.10;;;6.10;;
76176;SDS011;64938;47.696;8.066;2023-08-24T10:00:08;8.70;;;7.22;;
76176;SDS011;64938;47.696;8.066;2023-08-24T10:02:46;8.98;;;7.55;;
76176;SDS011;64938;47.696;8.066;2023-08-24T10:05:14;7.35;;;6.75;;
76176;SDS011;64938;47.696;8.066;2023-08-24T10:07:54;7.82;;;7.05;;
76176;SDS011;64938;47.696;8.066;2023-08-24T10:10:21;8.52;;;6.95;;
76176;SDS011;64938;47.696;8.066;2023-08-24T10:12:50;8.05;;;6.47;;
76176;SDS011;64938;47.696;8.066;2023-08-24T10:15:18;9.57;;;6.70;;
76176;SDS011;64938;47.696;8.066;2023-08-24T10:17:44;8.48;;;7.40;;
76176;SDS011;64938;47.696;8.066;2023-08-24T10:20:12;10.02;;;7.30;;
76176;SDS011;64938;47.696;8.066;2023-08-24T10:22:42;13.23;;;7.07;;
76176;SDS011;64938;47.696;8.066;2023-08-24T10:25:08;7.43;;;6.72;;
76176;SDS011;64938;47.696;8.066;2023-08-24T10:27:41;7.30;;;6.60;;
76176;SDS011;64938;47.696;8.066;2023-08-24T10:30:09;7.57;;;6.85;;
76176;SDS011;64938;47.696;8.066;2023-08-24T10:32:42;7.65;;;6.95;;
76176;SDS011;64938;47.696;8.066;2023-08-24T10:35:10;7.80;;;7.00;;
76176;SDS011;64938;47.696;8.066;2023-08-24T10:37:36;9.32;;;7.05;;
76176;SDS011;64938;47.696;8.066;2023-08-24T10:40:01;7.20;;;6.50;;
76176;SDS011;64938;47.696;8.066;2023-08-24T10:42:42;9.48;;;7.25;;
76176;SDS011;64938;47.696;8.066;2023-08-24T10:45:12;7.65;;;6.85;;
76176;SDS011;64938;47.696;8.066;2023-08-24T10:47:44;7.47;;;6.47;;
76176;SDS011;64938;47.696;8.066;2023-08-24T10:50:15;8.25;;;6.82;;
76176;SDS011;64938;47.696;8.066;2023-08-24T10:52:44;11.05;;;6.25;;
76176;SDS011;64938;47.696;8.066;2023-08-24T10:55:21;5.90;;;5.40;;
76176;SDS011;64938;47.696;8.066;2023-08-24T10:57:55;8.02;;;5.95;;
76176;SDS011;64938;47.696;8.066;2023-08-24T11:00:25;8.02;;;5.25;;
76176;SDS011;64938;47.696;8.066;2023-08-24T11:02:51;9.07;;;6.30;;
76176;SDS011;64938;47.696;8.066;2023-08-24T11:05:37;7.07;;;5.10;;
76176;SDS011;64938;47.696;8.066;2023-08-24T11:08:04;7.43;;;6.10;;
76176;SDS011;64938;47.696;8.066;2023-08-24T11:15:45;7.03;;;6.43;;
76176;SDS011;64938;47.696;8.066;2023-08-24T11:18:23;6.80;;;5.53;;
76176;SDS011;64938;47.696;8.066;2023-08-24T11:21:01;12.98;;;5.05;;
76176;SDS011;64938;47.696;8.066;2023-08-24T11:23:30;8.55;;;5.53;;
76176;SDS011;64938;47.696;8.066;2023-08-24T11:25:57;6.53;;;4.80;;
76176;SDS011;64938;47.696;8.066;2023-08-24T11:28:28;6.57;;;4.55;;
76176;SDS011;64938;47.696;8.066;2023-08-24T11:30:55;7.45;;;4.50;;
76176;SDS011;64938;47.696;8.066;2023-08-24T11:33:28;4.90;;;4.28;;
76176;SDS011;64938;47.696;8.066;2023-08-24T11:35:55;6.40;;;4.45;;
76176;SDS011;64938;47.696;8.066;2023-08-24T11:38:21;7.57;;;4.10;;
76176;SDS011;64938;47.696;8.066;2023-08-24T11:40:47;8.48;;;4.15;;
76176;SDS011;64938;47.696;8.066;2023-08-24T11:43:21;5.50;;;3.70;;
76176;SDS011;64938;47.696;8.066;2023-08-24T11:45:51;6.57;;;4.60;;
76176;SDS011;64938;47.696;8.066;2023-08-24T11:48:19;4.55;;;3.50;;
76176;SDS011;64938;47.696;8.066;2023-08-24T11:50:53;8.68;;;4.30;;
76176;SDS011;64938;47.696;8.066;2023-08-24T11:53:26;7.55;;;3.67;;
76176;SDS011;64938;47.696;8.066;2023-08-24T11:55:53;7.80;;;3.50;;
76176;SDS011;64938;47.696;8.066;2023-08-24T11:58:19;5.88;;;3.50;;
76176;SDS011;64938;47.696;8.066;2023-08-24T12:00:45;7.82;;;4.40;;
76176;SDS011;64938;47.696;8.066;2023-08-24T12:03:13;4.43;;;3.58;;
76176;SDS011;64938;47.696;8.066;2023-08-24T12:05:48;6.30;;;3.90;;
76176;SDS011;64938;47.696;8.066;2023-08-24T12:08:15;8.50;;;3.95;;
76176;SDS011;64938;47.696;8.066;2023-08-24T12:10:42;7.45;;;3.72;;
76176;SDS011;64938;47.696;8.066;2023-08-24T12:13:08;7.32;;;3.35;;
76176;SDS011;64938;47.696;8.066;2023-08-24T12:15:37;6.88;;;3.63;;
76176;SDS011;64938;47.696;8.066;2023-08-24T12:18:13;8.85;;;3.42;;
76176;SDS011;64938;47.696;8.066;2023-08-24T12:20:40;8.80;;;4.38;;
76176;SDS011;64938;47.696;8.066;2023-08-24T12:23:12;10.27;;;4.20;;
76176;SDS011;64938;47.696;8.066;2023-08-24T12:25:44;6.82;;;4.07;;
76176;SDS011;64938;47.696;8.066;2023-08-24T12:28:16;9.05;;;4.47;;
76176;SDS011;64938;47.696;8.066;2023-08-24T12:30:43;12.57;;;4.43;;
76176;SDS011;64938;47.696;8.066;2023-08-24T12:33:20;11.98;;;4.40;;
76176;SDS011;64938;47.696;8.066;2023-08-24T12:35:50;10.05;;;4.53;;
76176;SDS011;64938;47.696;8.066;2023-08-24T12:38:20;11.40;;;4.30;;
76176;SDS011;64938;47.696;8.066;2023-08-24T12:40:54;7.13;;;3.70;;
76176;SDS011;64938;47.696;8.066;2023-08-24T12:43:20;8.23;;;4.97;;
76176;SDS011;64938;47.696;8.066;2023-08-24T12:45:51;6.13;;;4.25;;
76176;SDS011;64938;47.696;8.066;2023-08-24T12:48:17;8.88;;;4.00;;
76176;SDS011;64938;47.696;8.066;2023-08-24T12:50:43;9.85;;;4.35;;
76176;SDS011;64938;47.696;8.066;2023-08-24T12:53:11;10.82;;;3.72;;
76176;SDS011;64938;47.696;8.066;2023-08-24T12:55:39;11.15;;;4.43;;
76176;SDS011;64938;47.696;8.066;2023-08-24T12:58:07;9.30;;;4.35;;
76176;SDS011;64938;47.696;8.066;2023-08-24T13:00:40;8.40;;;3.83;;
76176;SDS011;64938;47.696;8.066;2023-08-24T13:03:07;11.40;;;4.65;;
76176;SDS011;64938;47.696;8.066;2023-08-24T13:05:33;7.68;;;3.85;;
76176;SDS011;64938;47.696;8.066;2023-08-24T13:07:58;6.65;;;4.30;;
76176;SDS011;64938;47.696;8.066;2023-08-24T13:10:28;7.30;;;4.20;;
76176;SDS011;64938;47.696;8.066;2023-08-24T13:12:57;7.72;;;4.38;;
76176;SDS011;64938;47.696;8.066;2023-08-24T13:15:26;9.32;;;4.55;;
76176;SDS011;64938;47.696;8.066;2023-08-24T13:17:55;9.98;;;4.40;;
76176;SDS011;64938;47.696;8.066;2023-08-24T13:20:21;7.80;;;3.92;;
76176;SDS011;64938;47.696;8.066;2023-08-24T13:22:49;8.38;;;3.58;;
76176;SDS011;64938;47.696;8.066;2023-08-24T13:25:15;11.35;;;4.00;;
76176;SDS011;64938;47.696;8.066;2023-08-24T13:27:45;7.47;;;4.40;;
76176;SDS011;64938;47.696;8.066;2023-08-24T13:30:10;10.90;;;3.70;;
76176;SDS011;64938;47.696;8.066;2023-08-24T13:32:36;7.65;;;3.95;;
76176;SDS011;64938;47.696;8.066;2023-08-24T13:35:05;7.45;;;4.20;;
76176;SDS011;64938;47.696;8.066;2023-08-24T13:37:32;10.65;;;4.53;;
76176;SDS011;64938;47.696;8.066;2023-08-24T13:40:03;7.55;;;3.92;;
76176;SDS011;64938;47.696;8.066;2023-08-24T13:42:31;7.80;;;4.53;;
76176;SDS011;64938;47.696;8.066;2023-08-24T13:44:56;6.47;;;4.05;;
76176;SDS011;64938;47.696;8.066;2023-08-24T13:47:22;7.32;;;4.25;;
76176;SDS011;64938;47.696;8.066;2023-08-24T13:49:47;7.47;;;4.10;;
76176;SDS011;64938;47.696;8.066;2023-08-24T13:52:13;6.85;;;4.03;;
76176;SDS011;64938;47.696;8.066;2023-08-24T13:54:48;12.95;;;4.10;;
76176;SDS011;64938;47.696;8.066;2023-08-24T13:57:14;9.52;;;3.97;;
76176;SDS011;64938;47.696;8.066;2023-08-24T13:59:39;10.77;;;4.32;;
76176;SDS011;64938;47.696;8.066;2023-08-24T14:02:07;7.60;;;4.57;;
76176;SDS011;64938;47.696;8.066;2023-08-24T14:04:33;9.98;;;3.80;;
76176;SDS011;64938;47.696;8.066;2023-08-24T14:06:59;7.82;;;4.05;;
76176;SDS011;64938;47.696;8.066;2023-08-24T14:09:24;9.23;;;3.72;;
76176;SDS011;64938;47.696;8.066;2023-08-24T14:11:50;8.65;;;4.32;;
76176;SDS011;64938;47.696;8.066;2023-08-24T14:14:15;12.68;;;5.00;;
76176;SDS011;64938;47.696;8.066;2023-08-24T14:16:41;12.02;;;4.38;;
76176;SDS011;64938;47.696;8.066;2023-08-24T14:19:07;11.65;;;5.45;;
76176;SDS011;64938;47.696;8.066;2023-08-24T14:21:32;14.10;;;4.85;;
76176;SDS011;64938;47.696;8.066;2023-08-24T14:24:00;8.35;;;4.55;;
76176;SDS011;64938;47.696;8.066;2023-08-24T14:26:26;8.20;;;4.57;;
76176;SDS011;64938;47.696;8.066;2023-08-24T14:29:03;11.45;;;5.25;;
76176;SDS011;64938;47.696;8.066;2023-08-24T14:31:29;12.68;;;4.75;;
76176;SDS011;64938;47.696;8.066;2023-08-24T14:33:55;10.15;;;5.28;;
76176;SDS011;64938;47.696;8.066;2023-08-24T14:36:23;14.55;;;4.80;;
76176;SDS011;64938;47.696;8.066;2023-08-24T14:38:52;12.07;;;5.63;;
76176;SDS011;64938;47.696;8.066;2023-08-24T14:41:18;14.57;;;5.00;;
76176;SDS011;64938;47.696;8.066;2023-08-24T14:43:44;14.45;;;5.32;;
76176;SDS011;64938;47.696;8.066;2023-08-24T14:46:11;10.30;;;5.03;;
76176;SDS011;64938;47.696;8.066;2023-08-24T14:48:36;9.25;;;5.22;;
76176;SDS011;64938;47.696;8.066;2023-08-24T14:51:02;11.02;;;5.30;;
76176;SDS011;64938;47.696;8.066;2023-08-24T14:53:31;10.77;;;5.00;;